sensor_id;sensor_type;location;lat;lon;timestamp;temperature;humidity
16907;DHT22;8570;52.380;4.654;2024-01-10T00:04:23;-2.00;99.90
16907;DHT22;8570;52.380;4.654;2024-01-10T00:09:26;-2.00;99.90
16907;DHT22;8570;52.380;4.654;2024-01-10T00:14:29;-2.00;99.90
16907;DHT22;8570;52.380;4.654;2024-01-10T00:19:31;-2.00;99.90
16907;DHT22;8570;52.380;4.654;2024-01-10T00:24:41;-2.10;99.90
16907;DHT22;8570;52.380;4.654;2024-01-10T00:29:43;-2.10;99.90
16907;DHT22;8570;52.380;4.654;2024-01-10T00:34:45;-2.10;99.90
16907;DHT22;8570;52.380;4.654;2024-01-10T00:39:48;-2.10;99.90
16907;DHT22;8570;52.380;4.654;2024-01-10T00:44:50;-2.10;99.90
16907;DHT22;8570;52.380;4.654;2024-01-10T00:49:52;-2.10;99.90
16907;DHT22;8570;52.380;4.654;2024-01-10T00:54:55;-2.10;99.90
16907;DHT22;8570;52.380;4.654;2024-01-10T00:59:57;-2.10;99.90
16907;DHT22;8570;52.380;4.654;2024-01-10T01:05:00;-2.20;99.90
16907;DHT22;8570;52.380;4.654;2024-01-10T01:10:06;-2.20;99.90
16907;DHT22;8570;52.380;4.654;2024-01-10T01:15:13;-2.20;99.90
16907;DHT22;8570;52.380;4.654;2024-01-10T01:20:15;-2.20;99.90
16907;DHT22;8570;52.380;4.654;2024-01-10T01:25:22;-2.20;99.90
16907;DHT22;8570;52.380;4.654;2024-01-10T01:30:24;-2.20;99.90
16907;DHT22;8570;52.380;4.654;2024-01-10T01:35:26;-2.20;99.90
16907;DHT22;8570;52.380;4.654;2024-01-10T01:40:32;-2.20;99.90
16907;DHT22;8570;52.380;4.654;2024-01-10T01:45:34;-2.20;99.90
16907;DHT22;8570;52.380;4.654;2024-01-10T01:50:35;-2.30;99.90
16907;DHT22;8570;52.380;4.654;2024-01-10T01:55:39;-2.30;99.90
16907;DHT22;8570;52.380;4.654;2024-01-10T02:00:42;-2.30;99.90
16907;DHT22;8570;52.380;4.654;2024-01-10T02:05:50;-2.30;99.90
16907;DHT22;8570;52.380;4.654;2024-01-10T02:10:53;-2.30;99.90
16907;DHT22;8570;52.380;4.654;2024-01-10T02:15:57;-2.30;99.90
16907;DHT22;8570;52.380;4.654;2024-01-10T02:21:01;-2.30;99.90
16907;DHT22;8570;52.380;4.654;2024-01-10T02:26:05;-2.30;99.90
16907;DHT22;8570;52.380;4.654;2024-01-10T02:31:07;-2.30;99.90
16907;DHT22;8570;52.380;4.654;2024-01-10T02:36:09;-2.30;99.90
16907;DHT22;8570;52.380;4.654;2024-01-10T02:41:12;-2.30;99.90
16907;DHT22;8570;52.380;4.654;2024-01-10T02:46:17;-2.30;99.90
16907;DHT22;8570;52.380;4.654;2024-01-10T02:51:27;-2.30;99.90
16907;DHT22;8570;52.380;4.654;2024-01-10T02:56:32;-2.30;99.90
16907;DHT22;8570;52.380;4.654;2024-01-10T03:01:33;-2.30;99.90
16907;DHT22;8570;52.380;4.654;2024-01-10T03:06:35;-2.30;99.90
16907;DHT22;8570;52.380;4.654;2024-01-10T03:11:39;-2.40;99.90
16907;DHT22;8570;52.380;4.654;2024-01-10T03:16:42;-2.40;99.90
16907;DHT22;8570;52.380;4.654;2024-01-10T03:21:44;-2.40;99.90
16907;DHT22;8570;52.380;4.654;2024-01-10T03:26:47;-2.40;99.90
16907;DHT22;8570;52.380;4.654;2024-01-10T03:31:53;-2.40;99.90
16907;DHT22;8570;52.380;4.654;2024-01-10T03:36:55;-2.40;99.90
16907;DHT22;8570;52.380;4.654;2024-01-10T03:41:59;-2.40;99.90
16907;DHT22;8570;52.380;4.654;2024-01-10T03:47:01;-2.40;99.90
16907;DHT22;8570;52.380;4.654;2024-01-10T03:52:04;-2.40;99.90
16907;DHT22;8570;52.380;4.654;2024-01-10T03:57:07;-2.40;99.90
16907;DHT22;8570;52.380;4.654;2024-01-10T04:02:09;-2.40;99.90
16907;DHT22;8570;52.380;4.654;2024-01-10T04:07:14;-2.40;99.90
16907;DHT22;8570;52.380;4.654;2024-01-10T04:12:21;-2.40;99.90
16907;DHT22;8570;52.380;4.654;2024-01-10T04:17:22;-2.50;99.90
16907;DHT22;8570;52.380;4.654;2024-01-10T04:22:27;-2.50;99.90
16907;DHT22;8570;52.380;4.654;2024-01-10T04:27:30;-2.50;99.90
16907;DHT22;8570;52.380;4.654;2024-01-10T04:32:32;-2.50;99.90
16907;DHT22;8570;52.380;4.654;2024-01-10T04:37:35;-2.50;99.90
16907;DHT22;8570;52.380;4.654;2024-01-10T04:42:38;-2.50;99.90
16907;DHT22;8570;52.380;4.654;2024-01-10T04:47:41;-2.50;99.90
16907;DHT22;8570;52.380;4.654;2024-01-10T04:52:43;-2.50;99.90
16907;DHT22;8570;52.380;4.654;2024-01-10T04:57:48;-2.50;99.90
16907;DHT22;8570;52.380;4.654;2024-01-10T05:02:51;-2.50;99.90
16907;DHT22;8570;52.380;4.654;2024-01-10T05:07:53;-2.50;99.90
16907;DHT22;8570;52.380;4.654;2024-01-10T05:12:58;-2.50;99.90
16907;DHT22;8570;52.380;4.654;2024-01-10T05:18:00;-2.50;99.90
16907;DHT22;8570;52.380;4.654;2024-01-10T05:23:03;-2.50;99.90
16907;DHT22;8570;52.380;4.654;2024-01-10T05:28:10;-2.50;99.90
16907;DHT22;8570;52.380;4.654;2024-01-10T05:33:13;-2.50;99.90
16907;DHT22;8570;52.380;4.654;2024-01-10T05:38:15;-2.50;99.90
16907;DHT22;8570;52.380;4.654;2024-01-10T05:43:18;-2.50;99.90
16907;DHT22;8570;52.380;4.654;2024-01-10T05:48:24;-2.50;99.90
16907;DHT22;8570;52.380;4.654;2024-01-10T05:53:27;-2.40;99.90
16907;DHT22;8570;52.380;4.654;2024-01-10T05:58:31;-2.50;99.90
16907;DHT22;8570;52.380;4.654;2024-01-10T06:03:33;-2.50;99.90
16907;DHT22;8570;52.380;4.654;2024-01-10T06:08:35;-2.50;99.90
16907;DHT22;8570;52.380;4.654;2024-01-10T06:13:38;-2.50;99.90
16907;DHT22;8570;52.380;4.654;2024-01-10T06:18:41;-2.50;99.90
16907;DHT22;8570;52.380;4.654;2024-01-10T06:23:43;-2.50;99.90
16907;DHT22;8570;52.380;4.654;2024-01-10T06:28:46;-2.50;99.90
16907;DHT22;8570;52.380;4.654;2024-01-10T06:33:49;-2.50;99.90
16907;DHT22;8570;52.380;4.654;2024-01-10T06:38:55;-2.50;99.90
16907;DHT22;8570;52.380;4.654;2024-01-10T06:44:00;-2.50;99.90
16907;DHT22;8570;52.380;4.654;2024-01-10T06:49:03;-2.50;99.90
16907;DHT22;8570;52.380;4.654;2024-01-10T06:54:05;-2.50;99.90
16907;DHT22;8570;52.380;4.654;2024-01-10T06:59:08;-2.50;99.90
16907;DHT22;8570;52.380;4.654;2024-01-10T07:04:10;-2.50;99.90
16907;DHT22;8570;52.380;4.654;2024-01-10T07:09:12;-2.50;99.90
16907;DHT22;8570;52.380;4.654;2024-01-10T07:14:21;-2.50;99.90
16907;DHT22;8570;52.380;4.654;2024-01-10T07:19:23;-2.10;99.90
16907;DHT22;8570;52.380;4.654;2024-01-10T07:24:24;-2.00;99.90
16907;DHT22;8570;52.380;4.654;2024-01-10T07:29:28;-2.10;99.90
16907;DHT22;8570;52.380;4.654;2024-01-10T07:34:29;-2.20;99.90
16907;DHT22;8570;52.380;4.654;2024-01-10T07:39:31;-2.30;99.90
16907;DHT22;8570;52.380;4.654;2024-01-10T07:44:34;-2.30;99.90
16907;DHT22;8570;52.380;4.654;2024-01-10T07:49:36;-2.40;99.90
16907;DHT22;8570;52.380;4.654;2024-01-10T07:54:38;-2.40;99.90
16907;DHT22;8570;52.380;4.654;2024-01-10T07:59:41;-2.40;99.90
16907;DHT22;8570;52.380;4.654;2024-01-10T08:04:46;-2.40;99.90
16907;DHT22;8570;52.380;4.654;2024-01-10T08:09:48;-2.40;99.90
16907;DHT22;8570;52.380;4.654;2024-01-10T08:14:51;-2.40;99.90
16907;DHT22;8570;52.380;4.654;2024-01-10T08:19:53;-2.40;99.90
16907;DHT22;8570;52.380;4.654;2024-01-10T08:24:58;-2.50;99.90
16907;DHT22;8570;52.380;4.654;2024-01-10T08:30:01;-2.40;99.90
16907;DHT22;8570;52.380;4.654;2024-01-10T08:35:07;-2.40;99.90
16907;DHT22;8570;52.380;4.654;2024-01-10T08:40:10;-2.40;99.90
16907;DHT22;8570;52.380;4.654;2024-01-10T08:45:16;-2.40;99.90
16907;DHT22;8570;52.380;4.654;2024-01-10T08:50:18;-2.40;99.90
16907;DHT22;8570;52.380;4.654;2024-01-10T08:55:20;-2.40;99.90
16907;DHT22;8570;52.380;4.654;2024-01-10T09:00:23;-2.30;99.90
16907;DHT22;8570;52.380;4.654;2024-01-10T09:05:26;-2.30;99.90
16907;DHT22;8570;52.380;4.654;2024-01-10T09:10:27;-2.30;99.90
16907;DHT22;8570;52.380;4.654;2024-01-10T09:15:31;-2.20;99.90
16907;DHT22;8570;52.380;4.654;2024-01-10T09:20:33;-2.20;99.90
16907;DHT22;8570;52.380;4.654;2024-01-10T09:25:36;-2.10;99.90
16907;DHT22;8570;52.380;4.654;2024-01-10T09:30:39;-2.10;99.90
16907;DHT22;8570;52.380;4.654;2024-01-10T09:35:41;-2.10;99.90
16907;DHT22;8570;52.380;4.654;2024-01-10T09:40:43;-2.00;99.90
16907;DHT22;8570;52.380;4.654;2024-01-10T09:45:47;-1.80;99.90
16907;DHT22;8570;52.380;4.654;2024-01-10T09:50:53;-1.80;99.90
16907;DHT22;8570;52.380;4.654;2024-01-10T09:55:55;-1.70;99.90
16907;DHT22;8570;52.380;4.654;2024-01-10T10:00:59;-1.70;99.90
16907;DHT22;8570;52.380;4.654;2024-01-10T10:06:04;-1.60;99.90
16907;DHT22;8570;52.380;4.654;2024-01-10T10:11:06;-1.40;99.90
16907;DHT22;8570;52.380;4.654;2024-01-10T10:16:09;-1.00;99.90
16907;DHT22;8570;52.380;4.654;2024-01-10T10:21:14;-0.40;99.90
16907;DHT22;8570;52.380;4.654;2024-01-10T10:26:17;0.30;99.90
16907;DHT22;8570;52.380;4.654;2024-01-10T10:31:23;0.70;99.90
16907;DHT22;8570;52.380;4.654;2024-01-10T10:36:26;1.00;99.90
16907;DHT22;8570;52.380;4.654;2024-01-10T10:41:31;1.10;99.90
16907;DHT22;8570;52.380;4.654;2024-01-10T10:46:35;1.10;99.90
16907;DHT22;8570;52.380;4.654;2024-01-10T10:51:39;1.20;99.90
16907;DHT22;8570;52.380;4.654;2024-01-10T10:56:42;1.20;99.90
16907;DHT22;8570;52.380;4.654;2024-01-10T11:01:46;1.20;99.90
16907;DHT22;8570;52.380;4.654;2024-01-10T11:06:50;1.40;99.90
16907;DHT22;8570;52.380;4.654;2024-01-10T11:12:06;1.50;99.90
16907;DHT22;8570;52.380;4.654;2024-01-10T11:17:29;1.70;99.90
16907;DHT22;8570;52.380;4.654;2024-01-10T11:23:04;2.10;99.90
16907;DHT22;8570;52.380;4.654;2024-01-10T11:28:12;2.60;99.90
16907;DHT22;8570;52.380;4.654;2024-01-10T11:33:23;3.00;99.90
16907;DHT22;8570;52.380;4.654;2024-01-10T11:38:27;3.40;99.90
16907;DHT22;8570;52.380;4.654;2024-01-10T11:43:29;3.80;99.90
16907;DHT22;8570;52.380;4.654;2024-01-10T11:48:32;4.00;99.90
16907;DHT22;8570;52.380;4.654;2024-01-10T11:53:41;4.10;99.90
16907;DHT22;8570;52.380;4.654;2024-01-10T11:59:01;4.00;99.90
16907;DHT22;8570;52.380;4.654;2024-01-10T12:04:06;3.50;99.90
16907;DHT22;8570;52.380;4.654;2024-01-10T12:09:07;2.90;99.90
16907;DHT22;8570;52.380;4.654;2024-01-10T12:14:10;2.40;99.90
16907;DHT22;8570;52.380;4.654;2024-01-10T12:19:13;2.00;99.90
16907;DHT22;8570;52.380;4.654;2024-01-10T12:24:18;1.70;99.90
16907;DHT22;8570;52.380;4.654;2024-01-10T12:29:22;1.50;99.90
16907;DHT22;8570;52.380;4.654;2024-01-10T12:34:28;1.30;99.90
16907;DHT22;8570;52.380;4.654;2024-01-10T12:39:31;1.20;99.90
16907;DHT22;8570;52.380;4.654;2024-01-10T12:44:32;1.10;99.90
16907;DHT22;8570;52.380;4.654;2024-01-10T12:49:39;1.00;99.90
16907;DHT22;8570;52.380;4.654;2024-01-10T12:54:41;0.90;99.90
16907;DHT22;8570;52.380;4.654;2024-01-10T12:59:42;0.90;99.90
16907;DHT22;8570;52.380;4.654;2024-01-10T13:04:47;0.80;99.90
16907;DHT22;8570;52.380;4.654;2024-01-10T13:09:49;0.80;99.90
16907;DHT22;8570;52.380;4.654;2024-01-10T13:14:53;0.70;99.90
16907;DHT22;8570;52.380;4.654;2024-01-10T13:19:56;0.70;99.90
16907;DHT22;8570;52.380;4.654;2024-01-10T13:24:58;0.60;99.90
16907;DHT22;8570;52.380;4.654;2024-01-10T13:30:00;0.60;99.90
16907;DHT22;8570;52.380;4.654;2024-01-10T13:35:09;0.60;99.90
16907;DHT22;8570;52.380;4.654;2024-01-10T13:40:12;0.60;99.90
16907;DHT22;8570;52.380;4.654;2024-01-10T13:45:14;0.50;99.90
16907;DHT22;8570;52.380;4.654;2024-01-10T13:50:19;0.50;99.90
16907;DHT22;8570;52.380;4.654;2024-01-10T13:55:21;0.50;99.90
16907;DHT22;8570;52.380;4.654;2024-01-10T14:00:24;0.50;99.90
16907;DHT22;8570;52.380;4.654;2024-01-10T14:05:28;0.50;99.90
16907;DHT22;8570;52.380;4.654;2024-01-10T14:10:30;0.40;99.90
16907;DHT22;8570;52.380;4.654;2024-01-10T14:15:31;0.40;99.90
16907;DHT22;8570;52.380;4.654;2024-01-10T14:20:35;0.40;99.90
16907;DHT22;8570;52.380;4.654;2024-01-10T14:25:40;0.40;99.90
16907;DHT22;8570;52.380;4.654;2024-01-10T14:30:42;0.30;99.90
16907;DHT22;8570;52.380;4.654;2024-01-10T14:35:48;0.30;99.90
16907;DHT22;8570;52.380;4.654;2024-01-10T14:40:50;0.30;99.90
16907;DHT22;8570;52.380;4.654;2024-01-10T14:45:52;0.30;99.90
16907;DHT22;8570;52.380;4.654;2024-01-10T14:50:55;0.30;99.90
16907;DHT22;8570;52.380;4.654;2024-01-10T14:55:57;0.30;99.90
16907;DHT22;8570;52.380;4.654;2024-01-10T15:00:59;0.30;99.90
16907;DHT22;8570;52.380;4.654;2024-01-10T15:06:04;0.30;99.90
16907;DHT22;8570;52.380;4.654;2024-01-10T15:11:06;0.30;99.90
16907;DHT22;8570;52.380;4.654;2024-01-10T15:16:12;0.40;99.90
16907;DHT22;8570;52.380;4.654;2024-01-10T15:21:15;0.40;99.90
16907;DHT22;8570;52.380;4.654;2024-01-10T15:26:17;0.30;99.90
16907;DHT22;8570;52.380;4.654;2024-01-10T15:31:19;0.30;99.90
16907;DHT22;8570;52.380;4.654;2024-01-10T15:36:23;0.20;99.90
16907;DHT22;8570;52.380;4.654;2024-01-10T15:41:25;0.20;99.90
16907;DHT22;8570;52.380;4.654;2024-01-10T15:46:27;0.10;99.90
16907;DHT22;8570;52.380;4.654;2024-01-10T15:51:31;0.10;99.90
16907;DHT22;8570;52.380;4.654;2024-01-10T15:56:33;0.00;99.90
16907;DHT22;8570;52.380;4.654;2024-01-10T16:01:39;0.00;99.90
16907;DHT22;8570;52.380;4.654;2024-01-10T16:06:42;-0.10;99.90
16907;DHT22;8570;52.380;4.654;2024-01-10T16:11:45;-0.10;99.90
16907;DHT22;8570;52.380;4.654;2024-01-10T16:16:46;-0.20;99.90
16907;DHT22;8570;52.380;4.654;2024-01-10T16:21:50;-0.20;99.90
16907;DHT22;8570;52.380;4.654;2024-01-10T16:26:51;-0.30;99.90
16907;DHT22;8570;52.380;4.654;2024-01-10T16:31:53;-0.30;99.90
16907;DHT22;8570;52.380;4.654;2024-01-10T16:36:56;-0.30;99.90
16907;DHT22;8570;52.380;4.654;2024-01-10T16:41:58;-0.40;99.90
16907;DHT22;8570;52.380;4.654;2024-01-10T16:47:00;-0.40;99.90
16907;DHT22;8570;52.380;4.654;2024-01-10T16:52:03;-0.40;99.90
16907;DHT22;8570;52.380;4.654;2024-01-10T16:57:05;-0.40;99.90
16907;DHT22;8570;52.380;4.654;2024-01-10T17:02:07;-0.50;99.90
16907;DHT22;8570;52.380;4.654;2024-01-10T17:07:10;-0.50;99.90
16907;DHT22;8570;52.380;4.654;2024-01-10T17:12:12;-0.60;99.90
16907;DHT22;8570;52.380;4.654;2024-01-10T17:17:15;-0.50;99.90
16907;DHT22;8570;52.380;4.654;2024-01-10T17:22:18;-0.60;99.90
16907;DHT22;8570;52.380;4.654;2024-01-10T17:27:20;-0.60;99.90
16907;DHT22;8570;52.380;4.654;2024-01-10T17:32:22;-0.50;99.90
16907;DHT22;8570;52.380;4.654;2024-01-10T17:37:26;-0.50;99.90
16907;DHT22;8570;52.380;4.654;2024-01-10T17:42:27;-0.60;99.90
16907;DHT22;8570;52.380;4.654;2024-01-10T17:47:29;-0.60;99.90
16907;DHT22;8570;52.380;4.654;2024-01-10T17:52:32;-0.70;99.90
16907;DHT22;8570;52.380;4.654;2024-01-10T17:57:35;-0.70;99.90
16907;DHT22;8570;52.380;4.654;2024-01-10T18:02:38;-0.40;99.90
16907;DHT22;8570;52.380;4.654;2024-01-10T18:07:41;-0.30;99.90
16907;DHT22;8570;52.380;4.654;2024-01-10T18:12:43;-0.50;99.90
16907;DHT22;8570;52.380;4.654;2024-01-10T18:17:45;-0.60;99.90
16907;DHT22;8570;52.380;4.654;2024-01-10T18:23:00;-0.70;99.90
16907;DHT22;8570;52.380;4.654;2024-01-10T18:28:09;-0.80;99.90
16907;DHT22;8570;52.380;4.654;2024-01-10T18:33:18;-0.80;99.90
16907;DHT22;8570;52.380;4.654;2024-01-10T18:38:24;-0.90;99.90
16907;DHT22;8570;52.380;4.654;2024-01-10T18:43:39;-0.90;99.90
16907;DHT22;8570;52.380;4.654;2024-01-10T18:48:43;-1.00;99.90
16907;DHT22;8570;52.380;4.654;2024-01-10T18:54:05;-1.00;99.90
16907;DHT22;8570;52.380;4.654;2024-01-10T19:05:02;-1.10;99.90
16907;DHT22;8570;52.380;4.654;2024-01-10T20:04:05;-1.50;99.90
16907;DHT22;8570;52.380;4.654;2024-01-10T20:09:07;-1.50;99.90
16907;DHT22;8570;52.380;4.654;2024-01-10T20:14:13;-1.50;99.90
16907;DHT22;8570;52.380;4.654;2024-01-10T20:19:17;-1.50;99.90
16907;DHT22;8570;52.380;4.654;2024-01-10T20:24:18;-1.60;99.90
16907;DHT22;8570;52.380;4.654;2024-01-10T20:29:23;-1.60;99.90
16907;DHT22;8570;52.380;4.654;2024-01-10T20:34:32;-1.60;99.90
16907;DHT22;8570;52.380;4.654;2024-01-10T20:39:33;-1.60;99.90
16907;DHT22;8570;52.380;4.654;2024-01-10T20:44:41;-1.70;99.90
16907;DHT22;8570;52.380;4.654;2024-01-10T20:49:50;-1.70;99.90
16907;DHT22;8570;52.380;4.654;2024-01-10T20:54:53;-1.70;99.90
16907;DHT22;8570;52.380;4.654;2024-01-10T20:59:56;-1.80;99.90
16907;DHT22;8570;52.380;4.654;2024-01-10T21:05:00;-1.80;99.90
16907;DHT22;8570;52.380;4.654;2024-01-10T21:10:07;-1.80;99.90
16907;DHT22;8570;52.380;4.654;2024-01-10T21:15:12;-1.80;99.90
16907;DHT22;8570;52.380;4.654;2024-01-10T21:20:18;-1.80;99.90
16907;DHT22;8570;52.380;4.654;2024-01-10T21:25:22;-1.80;99.90
16907;DHT22;8570;52.380;4.654;2024-01-10T21:30:25;-1.90;99.90
16907;DHT22;8570;52.380;4.654;2024-01-10T21:35:28;-1.90;99.90
16907;DHT22;8570;52.380;4.654;2024-01-10T21:40:31;-1.90;99.90
16907;DHT22;8570;52.380;4.654;2024-01-10T21:45:33;-1.90;99.90
16907;DHT22;8570;52.380;4.654;2024-01-10T21:50:36;-1.90;99.90
16907;DHT22;8570;52.380;4.654;2024-01-10T21:55:41;-1.90;99.90
16907;DHT22;8570;52.380;4.654;2024-01-10T22:00:43;-1.90;99.90
16907;DHT22;8570;52.380;4.654;2024-01-10T22:05:46;-1.90;99.90
16907;DHT22;8570;52.380;4.654;2024-01-10T22:10:50;-2.00;99.90
16907;DHT22;8570;52.380;4.654;2024-01-10T22:15:52;-2.00;99.90
16907;DHT22;8570;52.380;4.654;2024-01-10T22:20:55;-2.00;99.90
16907;DHT22;8570;52.380;4.654;2024-01-10T22:25:57;-2.00;99.90
16907;DHT22;8570;52.380;4.654;2024-01-10T22:31:00;-2.00;99.90
16907;DHT22;8570;52.380;4.654;2024-01-10T22:36:04;-2.00;99.90
16907;DHT22;8570;52.380;4.654;2024-01-10T22:41:06;-2.10;99.90
16907;DHT22;8570;52.380;4.654;2024-01-10T22:46:10;-2.10;99.90
16907;DHT22;8570;52.380;4.654;2024-01-10T22:51:15;-2.10;99.90
16907;DHT22;8570;52.380;4.654;2024-01-10T22:56:17;-2.10;99.90
16907;DHT22;8570;52.380;4.654;2024-01-10T23:01:19;-2.20;99.90
16907;DHT22;8570;52.380;4.654;2024-01-10T23:06:27;-2.20;99.90
16907;DHT22;8570;52.380;4.654;2024-01-10T23:11:29;-2.20;99.90
16907;DHT22;8570;52.380;4.654;2024-01-10T23:16:33;-2.20;99.90
16907;DHT22;8570;52.380;4.654;2024-01-10T23:21:38;-2.20;99.90
16907;DHT22;8570;52.380;4.654;2024-01-10T23:26:39;-2.30;99.90
16907;DHT22;8570;52.380;4.654;2024-01-10T23:31:41;-2.30;99.90
16907;DHT22;8570;52.380;4.654;2024-01-10T23:36:47;-2.30;99.90
16907;DHT22;8570;52.380;4.654;2024-01-10T23:41:48;-2.40;99.90
16907;DHT22;8570;52.380;4.654;2024-01-10T23:46:52;-2.40;99.90
16907;DHT22;8570;52.380;4.654;2024-01-10T23:51:56;-2.40;99.90
16907;DHT22;8570;52.380;4.654;2024-01-10T23:56:58;-2.50;99.90
